<?xml version='1.0' encoding='UTF-8'?>
<gpx xmlns="http://www.topografix.com/GPX/1/1" creator="www.balnam.be" version="1.1" xmlns:xsi="http://www.w3.org/2001/XMLSchema-instance" xsi:schemaLocation="http://www.topografix.com/GPX/1/1 http://www.topografix.com/GPX/1/1/gpx.xsd">
<trk>
<name>lbgwo5</name>
<cmt>s</cmt>
<desc>Wonck Chemin n°5 </desc>
<link href="https://chemins.be/wonck/chemin/5"/><trkseg>
<trkpt lat="50.752353" lon="5.649626"><time>2026-05-08T05:41:17Z</time></trkpt>
<trkpt lat="50.754252" lon="5.647284"><time>2026-05-08T05:51:17Z</time></trkpt>
<trkpt lat="50.755728" lon="5.646969"><time>2026-05-08T06:01:17Z</time></trkpt>
<trkpt lat="50.756583" lon="5.646922"><time>2026-05-08T06:11:17Z</time></trkpt>
</trkseg></trk>
<trk>
<name>lbgwo5</name>
<cmt>d</cmt>
<desc>Wonck Chemin n°5 </desc>
<link href="https://chemins.be/wonck/chemin/5"/><trkseg>
<trkpt lat="50.756583" lon="5.646922"><time>2026-05-08T06:11:17Z</time></trkpt>
<trkpt lat="50.756902" lon="5.646896"><time>2026-05-08T06:21:17Z</time></trkpt>
<trkpt lat="50.757524" lon="5.646689"><time>2026-05-08T06:31:17Z</time></trkpt>
<trkpt lat="50.757845" lon="5.646583"><time>2026-05-08T06:41:17Z</time></trkpt>
<trkpt lat="50.758162" lon="5.646154"><time>2026-05-08T06:51:17Z</time></trkpt>
<trkpt lat="50.758091" lon="5.644636"><time>2026-05-08T07:01:17Z</time></trkpt>
<trkpt lat="50.759211" lon="5.642015"><time>2026-05-08T07:11:17Z</time></trkpt>
<trkpt lat="50.760352" lon="5.640613"><time>2026-05-08T07:21:17Z</time></trkpt>
</trkseg></trk>
<trk>
<name>lbgwo5</name>
<cmt>v</cmt>
<desc>Wonck Chemin n°5 </desc>
<link href="https://chemins.be/wonck/chemin/5"/><trkseg>
<trkpt lat="50.760352" lon="5.640613"><time>2026-05-08T07:21:17Z</time></trkpt>
<trkpt lat="50.760591" lon="5.640319"><time>2026-05-08T07:31:17Z</time></trkpt>
<trkpt lat="50.761022" lon="5.639494"><time>2026-05-08T07:41:17Z</time></trkpt>
</trkseg></trk>
<trk>
<name>lbgwo5</name>
<cmt>d</cmt>
<desc>Wonck Chemin n°5 </desc>
<link href="https://chemins.be/wonck/chemin/5"/><trkseg>
<trkpt lat="50.761022" lon="5.639494"><time>2026-05-08T07:41:17Z</time></trkpt>
<trkpt lat="50.761437" lon="5.638660"><time>2026-05-08T07:51:17Z</time></trkpt>
</trkseg></trk>
<trk>
<name>lbgwo5</name>
<cmt>r</cmt>
<desc>Wonck Chemin n°5 </desc>
<link href="https://chemins.be/wonck/chemin/5"/><trkseg>
<trkpt lat="50.761437" lon="5.638660"><time>2026-05-08T07:51:17Z</time></trkpt>
<trkpt lat="50.762677" lon="5.637465"><time>2026-05-08T08:01:17Z</time></trkpt>
<trkpt lat="50.763545" lon="5.637100"><time>2026-05-08T08:11:17Z</time></trkpt>
<trkpt lat="50.766382" lon="5.634461"><time>2026-05-08T08:21:17Z</time></trkpt>
<trkpt lat="50.766481" lon="5.634704"><time>2026-05-08T08:31:17Z</time></trkpt>
<trkpt lat="50.767920" lon="5.635098"><time>2026-05-08T08:41:17Z</time></trkpt>
<trkpt lat="50.768989" lon="5.634365"><time>2026-05-08T08:51:17Z</time></trkpt>
<trkpt lat="50.769075" lon="5.632931"><time>2026-05-08T09:01:17Z</time></trkpt>
<trkpt lat="50.769313" lon="5.632009"><time>2026-05-08T09:11:17Z</time></trkpt>
<trkpt lat="50.770154" lon="5.631211"><time>2026-05-08T09:21:17Z</time></trkpt>
<trkpt lat="50.770611" lon="5.630228"><time>2026-05-08T09:31:17Z</time></trkpt>
<trkpt lat="50.770655" lon="5.629191"><time>2026-05-08T09:41:17Z</time></trkpt>
</trkseg></trk>
<trk>
<name>lbgwo5</name>
<cmt>v</cmt>
<desc>Wonck Chemin n°5 </desc>
<link href="https://chemins.be/wonck/chemin/5"/><trkseg>
<trkpt lat="50.770655" lon="5.629191"><time>2026-05-08T09:41:17Z</time></trkpt>
<trkpt lat="50.770838" lon="5.627521"><time>2026-05-08T09:51:17Z</time></trkpt>
<trkpt lat="50.771364" lon="5.626499"><time>2026-05-08T10:01:17Z</time></trkpt>
<trkpt lat="50.772587" lon="5.624203"><time>2026-05-08T10:11:17Z</time></trkpt>
<trkpt lat="50.772640" lon="5.624163"><time>2026-05-08T10:21:17Z</time></trkpt>
<trkpt lat="50.774920" lon="5.618184"><time>2026-05-08T10:31:17Z</time></trkpt>
<trkpt lat="50.777655" lon="5.613466"><time>2026-05-08T10:41:17Z</time></trkpt>
<trkpt lat="50.778853" lon="5.610892"><time>2026-05-08T10:51:17Z</time></trkpt>
<trkpt lat="50.779251" lon="5.609454"><time>2026-05-08T11:01:17Z</time></trkpt>
<trkpt lat="50.780034" lon="5.608324"><time>2026-05-08T11:11:17Z</time></trkpt>
</trkseg>
</trk>
</gpx>